Time,TemperatureF,DewpointF,PressureIn,WindDirection,WindDirectionDegrees,WindSpeedMPH,WindSpeedGustMPH,Humidity,HourlyPrecipIn,Conditions,Clouds,dailyrainin,SoftwareType,DateUTC
2013-01-15 00:10:00,31.9,5.0,30.38,ESE,109,5.0,9.0,32,0.00,,,0.00,weatherlink.com 1.10,2013-01-15 08:10:00,
2013-01-15 00:25:00,33.3,6.0,30.36,NNE,20,16.0,16.0,31,0.00,,,0.00,weatherlink.com 1.10,2013-01-15 08:25:00,
2013-01-15 00:40:00,31.2,3.0,30.41,NE,41,4.0,8.0,30,0.00,,,0.00,weatherlink.com 1.10,2013-01-15 08:40:00,
2013-01-15 00:55:00,29.0,2.0,30.41,North,354,1.0,7.0,31,0.00,,,0.00,weatherlink.com 1.10,2013-01-15 08:55:00,
2013-01-15 01:11:00,27.7,4.0,30.42,North,5,0.0,3.0,37,0.00,,,0.00,weatherlink.com 1.10,2013-01-15 09:11:00,
2013-01-15 01:26:00,26.8,7.0,30.42,South,184,2.0,2.0,43,0.00,,,0.00,weatherlink.com 1.10,2013-01-15 09:26:00,
2013-01-15 01:41:00,26.0,6.0,30.42,SE,134,0.0,3.0,43,0.00,,,0.00,weatherlink.com 1.10,2013-01-15 09:41:00,
2013-01-15 01:56:00,25.2,9.0,30.43,SSE,162,0.0,2.0,51,0.00,,,0.00,weatherlink.com 1.10,2013-01-15 09:56:00,
2013-01-15 02:11:00,25.4,7.0,30.43,ESE,103,0.0,6.0,45,0.00,,,0.00,weatherlink.com 1.10,2013-01-15 10:11:00,
2013-01-15 02:26:00,26.7,4.0,30.44,South,183,3.0,5.0,38,0.00,,,0.00,weatherlink.com 1.10,2013-01-15 10:26:00,
2013-01-15 02:41:00,26.7,4.0,30.43,SSE,161,5.0,5.0,38,0.00,,,0.00,weatherlink.com 1.10,2013-01-15 10:41:00,
2013-01-15 02:56:00,26.9,6.0,30.42,North,6,1.0,4.0,42,0.00,,,0.00,weatherlink.com 1.10,2013-01-15 10:56:00,
2013-01-15 03:11:00,26.4,7.0,30.42,NNE,30,3.0,4.0,43,0.00,,,0.00,weatherlink.com 1.10,2013-01-15 11:11:00,
2013-01-15 03:26:00,26.3,7.0,30.43,SE,134,0.0,4.0,44,0.00,,,0.00,weatherlink.com 1.10,2013-01-15 11:26:00,
2013-01-15 03:41:00,26.2,9.0,30.44,SE,139,0.0,4.0,48,0.00,,,0.00,weatherlink.com 1.10,2013-01-15 11:41:00,
2013-01-15 03:56:00,25.6,10.0,30.43,SSE,167,1.0,2.0,53,0.00,,,0.00,weatherlink.com 1.10,2013-01-15 11:56:00,
2013-01-15 04:11:00,25.3,11.0,30.43,ESE,103,0.0,3.0,56,0.00,,,0.00,weatherlink.com 1.10,2013-01-15 12:11:00,
2013-01-15 04:26:00,25.5,10.0,30.42,SSE,161,0.0,5.0,51,0.00,,,0.00,weatherlink.com 1.10,2013-01-15 12:26:00,
2013-01-15 04:41:00,26.7,10.0,30.41,SSE,148,1.0,5.0,49,0.00,,,0.00,weatherlink.com 1.10,2013-01-15 12:41:00,
2013-01-15 04:56:00,26.2,11.0,30.42,SSE,163,0.0,1.0,53,0.00,,,0.00,weatherlink.com 1.10,2013-01-15 12:56:00,
2013-01-15 05:11:00,25.5,11.0,30.42,East,101,0.0,3.0,54,0.00,,,0.00,weatherlink.com 1.10,2013-01-15 13:11:00,
2013-01-15 05:26:00,26.1,9.0,30.42,SSE,161,2.0,2.0,49,0.00,,,0.00,weatherlink.com 1.10,2013-01-15 13:26:00,
2013-01-15 05:41:00,25.8,9.0,30.44,SE,145,1.0,2.0,50,0.00,,,0.00,weatherlink.com 1.10,2013-01-15 13:41:00,
2013-01-15 05:56:00,25.4,11.0,30.43,SSE,153,1.0,2.0,55,0.00,,,0.00,weatherlink.com 1.10,2013-01-15 13:56:00,
2013-01-15 06:11:00,24.8,12.0,30.45,SSE,155,0.0,1.0,59,0.00,,,0.00,weatherlink.com 1.10,2013-01-15 14:11:00,
2013-01-15 06:26:00,24.5,12.0,30.45,ESE,115,2.0,4.0,58,0.00,,,0.00,weatherlink.com 1.10,2013-01-15 14:26:00,
2013-01-15 06:41:00,24.3,10.0,30.45,SSE,153,0.0,0.0,55,0.00,,,0.00,weatherlink.com 1.10,2013-01-15 14:41:00,
2013-01-15 06:56:00,24.2,10.0,30.46,NW,319,0.0,4.0,56,0.00,,,0.00,weatherlink.com 1.10,2013-01-15 14:56:00,
2013-01-15 07:11:00,24.0,10.0,30.45,SSE,158,2.0,5.0,56,0.00,,,0.00,weatherlink.com 1.10,2013-01-15 15:11:00,
2013-01-15 07:26:00,23.9,10.0,30.45,NW,314,3.0,4.0,55,0.00,,,0.00,weatherlink.com 1.10,2013-01-15 15:26:00,
2013-01-15 07:41:00,24.7,9.0,30.45,SSW,195,2.0,4.0,52,0.00,,,0.00,weatherlink.com 1.10,2013-01-15 15:41:00,
2013-01-15 07:56:00,24.6,11.0,30.47,SSE,162,0.0,3.0,57,0.00,,,0.00,weatherlink.com 1.10,2013-01-15 15:56:00,
2013-01-15 08:11:00,24.6,10.0,30.48,SSW,212,2.0,2.0,54,0.00,,,0.00,weatherlink.com 1.10,2013-01-15 16:11:00,
2013-01-15 08:26:00,25.1,10.0,30.48,South,172,1.0,3.0,52,0.00,,,0.00,weatherlink.com 1.10,2013-01-15 16:26:00,
2013-01-15 08:41:00,25.4,10.0,30.49,SE,139,1.0,2.0,53,0.00,,,0.00,weatherlink.com 1.10,2013-01-15 16:41:00,
2013-01-15 08:56:00,26.4,9.0,30.50,NE,39,1.0,5.0,49,0.00,,,0.00,weatherlink.com 1.10,2013-01-15 16:56:00,
2013-01-15 09:11:00,27.2,12.0,30.51,South,177,0.0,2.0,52,0.00,,,0.00,weatherlink.com 1.10,2013-01-15 17:11:00,
2013-01-15 09:26:00,27.2,12.0,30.51,SE,134,0.0,3.0,54,0.00,,,0.00,weatherlink.com 1.10,2013-01-15 17:26:00,
2013-01-15 09:41:00,28.2,12.0,30.51,South,173,2.0,5.0,52,0.00,,,0.00,weatherlink.com 1.10,2013-01-15 17:41:00,
2013-01-15 09:56:00,28.6,14.0,30.51,SSE,165,1.0,2.0,54,0.00,,,0.00,weatherlink.com 1.10,2013-01-15 17:56:00,
2013-01-15 10:11:00,29.2,14.0,30.50,South,181,1.0,3.0,53,0.00,,,0.00,weatherlink.com 1.10,2013-01-15 18:11:00,
2013-01-15 10:27:00,29.7,16.0,30.50,SSE,163,1.0,3.0,57,0.00,,,0.00,weatherlink.com 1.10,2013-01-15 18:27:00,
2013-01-15 10:42:00,31.0,16.0,30.48,SSE,156,1.0,3.0,54,0.00,,,0.00,weatherlink.com 1.10,2013-01-15 18:42:00,
2013-01-15 10:57:00,35.1,16.0,30.47,NE,50,2.0,11.0,45,0.00,,,0.00,weatherlink.com 1.10,2013-01-15 18:57:00,
2013-01-15 11:12:00,38.5,15.0,30.45,ENE,70,6.0,14.0,38,0.00,,,0.00,weatherlink.com 1.10,2013-01-15 19:12:00,
2013-01-15 11:27:00,39.1,14.0,30.44,NE,34,0.0,11.0,36,0.00,,,0.00,weatherlink.com 1.10,2013-01-15 19:27:00,
2013-01-15 11:42:00,39.7,15.0,30.45,NW,323,2.0,8.0,36,0.00,,,0.00,weatherlink.com 1.10,2013-01-15 19:42:00,
2013-01-15 11:57:00,40.7,15.0,30.44,NNW,335,4.0,8.0,36,0.00,,,0.00,weatherlink.com 1.10,2013-01-15 19:57:00,
2013-01-15 12:12:00,41.6,16.0,30.44,East,87,0.0,7.0,36,0.00,,,0.00,weatherlink.com 1.10,2013-01-15 20:12:00,
2013-01-15 12:27:00,41.6,17.0,30.43,East,82,0.0,5.0,37,0.00,,,0.00,weatherlink.com 1.10,2013-01-15 20:27:00,
2013-01-15 12:42:00,42.1,17.0,30.43,East,94,1.0,4.0,36,0.00,,,0.00,weatherlink.com 1.10,2013-01-15 20:42:00,
2013-01-15 12:57:00,41.4,20.0,30.42,SSW,198,1.0,3.0,43,0.00,,,0.00,weatherlink.com 1.10,2013-01-15 20:57:00,
2013-01-15 13:12:00,42.6,17.0,30.41,SSW,212,0.0,8.0,36,0.01,,,0.01,weatherlink.com 1.10,2013-01-15 21:12:00,
2013-01-15 13:27:00,42.6,18.0,30.41,ENE,77,1.0,5.0,37,0.01,,,0.01,weatherlink.com 1.10,2013-01-15 21:27:00,
2013-01-15 13:42:00,41.6,21.0,30.41,WSW,242,0.0,1.0,44,0.01,,,0.01,weatherlink.com 1.10,2013-01-15 21:42:00,
2013-01-15 13:57:00,40.2,23.0,30.40,South,191,1.0,2.0,50,0.02,,,0.02,weatherlink.com 1.10,2013-01-15 21:57:00,
2013-01-15 14:12:00,38.6,21.0,30.41,ENE,72,0.0,2.0,49,0.01,,,0.02,weatherlink.com 1.10,2013-01-15 22:12:00,
2013-01-15 14:27:00,38.1,21.0,30.42,South,169,1.0,2.0,50,0.01,,,0.02,weatherlink.com 1.10,2013-01-15 22:27:00,
2013-01-15 14:42:00,37.6,21.0,30.42,South,190,1.0,2.0,52,0.01,,,0.02,weatherlink.com 1.10,2013-01-15 22:42:00,
2013-01-15 14:57:00,35.8,23.0,30.42,South,181,2.0,2.0,60,0.00,,,0.02,weatherlink.com 1.10,2013-01-15 22:57:00,
2013-01-15 15:12:00,34.9,23.0,30.42,SSE,148,3.0,4.0,62,0.00,,,0.02,weatherlink.com 1.10,2013-01-15 23:12:00,
2013-01-15 15:27:00,34.6,23.0,30.42,SSE,153,2.0,4.0,63,0.00,,,0.02,weatherlink.com 1.10,2013-01-15 23:27:00,
2013-01-15 15:42:00,34.4,24.0,30.42,SSE,153,1.0,3.0,65,0.00,,,0.02,weatherlink.com 1.10,2013-01-15 23:42:00,
2013-01-15 15:57:00,34.1,23.0,30.43,SSE,153,2.0,3.0,65,0.00,,,0.02,weatherlink.com 1.10,2013-01-15 23:57:00,
2013-01-15 16:12:00,34.2,23.0,30.43,SSE,158,2.0,2.0,65,0.00,,,0.02,weatherlink.com 1.10,2013-01-16 00:12:00,
2013-01-15 16:27:00,33.9,24.0,30.43,SE,146,2.0,3.0,67,0.00,,,0.02,weatherlink.com 1.10,2013-01-16 00:27:00,
2013-01-15 16:42:00,33.8,23.0,30.44,SSE,150,1.0,3.0,66,0.00,,,0.02,weatherlink.com 1.10,2013-01-16 00:42:00,
2013-01-15 16:57:00,33.3,24.0,30.44,SSE,160,2.0,3.0,68,0.00,,,0.02,weatherlink.com 1.10,2013-01-16 00:57:00,
2013-01-15 17:12:00,32.8,23.0,30.45,SSE,155,2.0,3.0,68,0.00,,,0.02,weatherlink.com 1.10,2013-01-16 01:12:00,
2013-01-15 17:27:00,32.6,23.0,30.45,SSE,161,1.0,3.0,69,0.00,,,0.02,weatherlink.com 1.10,2013-01-16 01:27:00,
2013-01-15 17:42:00,32.3,23.0,30.45,SSE,156,2.0,3.0,68,0.00,,,0.02,weatherlink.com 1.10,2013-01-16 01:42:00,
2013-01-15 17:57:00,32.2,23.0,30.46,SE,140,3.0,4.0,69,0.00,,,0.02,weatherlink.com 1.10,2013-01-16 01:57:00,
2013-01-15 18:12:00,31.9,22.0,30.46,SSE,156,2.0,3.0,68,0.00,,,0.02,weatherlink.com 1.10,2013-01-16 02:12:00,
2013-01-15 18:27:00,31.8,23.0,30.47,SE,140,1.0,3.0,70,0.00,,,0.02,weatherlink.com 1.10,2013-01-16 02:27:00,
2013-01-15 18:42:00,31.8,23.0,30.47,SE,143,2.0,4.0,69,0.00,,,0.02,weatherlink.com 1.10,2013-01-16 02:42:00,
2013-01-15 18:57:00,31.4,23.0,30.47,SSE,153,2.0,3.0,70,0.00,,,0.02,weatherlink.com 1.10,2013-01-16 02:57:00,
2013-01-15 19:12:00,31.3,23.0,30.47,SSE,152,2.0,3.0,71,0.00,,,0.02,weatherlink.com 1.10,2013-01-16 03:12:00,
2013-01-15 19:27:00,31.3,23.0,30.47,SSE,166,3.0,3.0,70,0.00,,,0.02,weatherlink.com 1.10,2013-01-16 03:27:00,
2013-01-15 19:42:00,31.7,23.0,30.47,South,170,2.0,4.0,69,0.00,,,0.02,weatherlink.com 1.10,2013-01-16 03:42:00,
2013-01-15 19:57:00,31.7,23.0,30.48,SE,143,1.0,4.0,70,0.00,,,0.02,weatherlink.com 1.10,2013-01-16 03:57:00,
2013-01-15 20:12:00,32.1,23.0,30.49,SSE,155,2.0,3.0,68,0.00,,,0.02,weatherlink.com 1.10,2013-01-16 04:12:00,
2013-01-15 20:27:00,31.6,23.0,30.48,SSE,158,1.0,4.0,70,0.00,,,0.02,weatherlink.com 1.10,2013-01-16 04:27:00,
2013-01-15 20:42:00,31.7,23.0,30.47,SE,145,2.0,3.0,71,0.00,,,0.02,weatherlink.com 1.10,2013-01-16 04:42:00,
2013-01-15 20:57:00,32.3,24.0,30.46,SSE,154,2.0,5.0,70,0.00,,,0.02,weatherlink.com 1.10,2013-01-16 04:57:00,
2013-01-15 21:12:00,32.6,23.0,30.46,South,188,3.0,4.0,69,0.00,,,0.02,weatherlink.com 1.10,2013-01-16 05:12:00,
2013-01-15 21:27:00,32.3,24.0,30.46,SSE,168,1.0,2.0,72,0.00,,,0.02,weatherlink.com 1.10,2013-01-16 05:27:00,
2013-01-15 21:42:00,32.0,24.0,30.47,SSE,155,2.0,2.0,73,0.00,,,0.02,weatherlink.com 1.10,2013-01-16 05:42:00,
2013-01-15 21:57:00,32.1,24.0,30.48,SE,142,3.0,3.0,73,0.00,,,0.02,weatherlink.com 1.10,2013-01-16 05:57:00,
2013-01-15 22:13:00,32.0,24.0,30.48,South,170,2.0,3.0,71,0.00,,,0.02,weatherlink.com 1.10,2013-01-16 06:13:00,
2013-01-15 22:27:00,32.3,24.0,30.47,SSE,150,2.0,4.0,71,0.00,,,0.02,weatherlink.com 1.10,2013-01-16 06:27:00,
2013-01-15 22:42:00,32.7,24.0,30.47,South,169,2.0,3.0,71,0.00,,,0.02,weatherlink.com 1.10,2013-01-16 06:42:00,
2013-01-15 22:57:00,32.8,25.0,30.47,SE,141,2.0,3.0,72,0.00,,,0.02,weatherlink.com 1.10,2013-01-16 06:57:00,
2013-01-15 23:12:00,32.9,25.0,30.46,SSE,156,2.0,4.0,72,0.00,,,0.02,weatherlink.com 1.10,2013-01-16 07:12:00,
2013-01-15 23:27:00,32.8,25.0,30.47,SSE,162,1.0,3.0,73,0.00,,,0.02,weatherlink.com 1.10,2013-01-16 07:27:00,
2013-01-15 23:42:00,33.3,24.0,30.47,SSE,149,2.0,3.0,70,0.00,,,0.02,weatherlink.com 1.10,2013-01-16 07:42:00,
2013-01-15 23:58:00,33.3,25.0,30.47,SE,144,2.0,3.0,72,0.00,,,0.02,weatherlink.com 1.10,2013-01-16 07:58:00,